Historyczne dane pomiarowe

Dodano dane terminowe – wersja testowa.

Dane z okresu 1951-2019

Wersja bazy: 1.34 [2019-03-16, lista zmian], aktualizacja planowana na 2019-04-15

Dane meteo z obszaru Polski uzyskane na podstawie danych udostępnionych przez Instytut Meteorologii i Gospodarki Wodnej – Państwowy Instytut Badawczy.

 

Wybierz Datę:    

       

TemperaturaWilgotnośćWiatrCiśnienieOpadyŚniegCzas trwania zjawisk
 Stacja t tx tn tng RH VA  wxwx mslp ppp RRR   cm mm wxwxwxwxwxwxwx
1959-06-13 18.2 25.1 13.5 12.5 62.8- 5.7 6.7---- 0.0------------
1959-06-14 14.7 21.1 10.3 8.2 49.8- 5.3 5.3---- 0.0------------
1959-06-15 16.1 24.1 8.4 4.0 51.3- 3.0 5.0---- 0.0------------
1959-06-16 12.0 16.6 8.8 4.8 66.0- 6.3 4.3---- 0.0------------
1959-06-17 16.3 22.2 7.9 4.7 61.3- 5.0 3.0---- 0.0------------
1959-06-18 22.1 29.4 10.3 5.2 49.3- 0.7 3.0---- 0.0------------
1959-06-19 16.8 23.7 13.9 12.2 56.5- 4.0 3.7---- 0.0------------
1959-06-20 14.5 20.6 7.4 2.8 46.8- 2.0 4.3---- 0.0------------
1959-06-21 17.1 23.3 4.8 -1.7 43.3- 0.0 2.7---- 0.0------------
1959-06-22 16.1 22.7 6.4 1.1 53.8- 0.3 5.3---- 0.0------------
1959-06-23 15.6 21.2 6.9 4.7 44.0- 4.0 5.3---- 0.0------------
1959-06-24 17.2 23.4 8.9 5.7 59.8- 2.3 4.0---- 0.0------------
1959-06-25 17.7 23.8 9.7 7.6 55.8- 3.0 3.0---- 0.0------------
1959-06-26 18.3 26.3 9.7 5.1 69.5- 2.7 2.7---- 12.2------------
1959-06-27 20.8 26.9 8.5 6.9 69.0- 2.0 2.0---- 0.0------------
1959-06-28 18.0 21.2 12.3 8.9 84.0- 6.7 1.7---- 4.8------------
1959-06-29 17.1 22.4 13.0 11.1 77.8- 7.3 1.7---- 1.2------------
1959-06-30 15.7 18.2 12.8 12.5 83.3- 8.0 2.7---- 0.3------------
1959-07-01 17.2 21.3 12.9 11.5 72.0- 7.3 5.0---- 7.0------------
1959-07-02 14.1 17.2 12.2 11.3 88.8- 7.3 4.0---- 6.0------------
1959-07-03 15.8 20.7 10.1 8.3 77.8- 5.7 3.0---- 1.0------------
1959-07-04 17.6 21.7 14.2 13.3 77.5- 5.3 2.7---- 0.0------------
1959-07-05 19.2 24.9 9.7 7.1 65.8- 0.7 1.3---- 0.0------------
1959-07-06 21.6 27.2 10.6 7.8 58.8- 2.7 2.3---- 0.0------------
1959-07-07 22.0 28.5 13.6 11.5 60.0- 6.7 2.7---- 0.0------------
1959-07-08 22.8 29.2 10.7 7.0 62.8- 0.0 2.7---- 0.0------------
1959-07-09 25.8 32.6 13.0 9.4 46.0- 1.0 2.0---- 0.0------------
1959-07-10 27.9 35.9 15.1 11.4 48.8- 0.0 1.7---- 0.0------------
1959-07-11 31.2 38.2 16.8 12.2 37.8- 0.0 2.3---- 0.0------------
1959-07-12 30.7 37.8 19.4 13.5 40.5- 2.3 3.0---- 0.0------------
68.5 ms

 

Źródłem pochodzenia danych jest Instytut Meteorologii i Gospodarki Wodnej – Państwowy Instytut Badawczy. Dane Instytutu Meteorologii i Gospodarki Wodnej – Państwowego Instytutu Badawczego zostały przetworzone.

Dane źródłowe można odnaleźć na stronie https://dane.imgw.pl